Portada
METAR-TAF:

METAR-TAF

Aeroports :

Ankara-Esenboğa, Turquia

latitud: 40-07N, longitud: 032-59E, altitud: 953 m

Observació

L'informe es va fer fa 29 minuts, a les 00:20 UTC
Vent 3 kt del Nord-Est
Temperatura -5°C
Humitat 79%
Pressió 1020 hPa
Visibilitat 10 km o més
sense núvols per sota de 1500 mi sense presència de cumulonimbus.

METAR: LTAC 200020Z 05003KT CAVOK M05/M08 Q1020 NOSIG RMK RWY21L 05004KT RWY03L 05004KT RWY21R 04005KT

Hora: 03:49 (00:49 UTC)

Pronòstic

L'informe es va fer fa 2 hores i 9 minuts, a les 22:40 UTC
Pronòstic vàlid del 20 a les 00 UTC al 20 a les 24 UTC
Vent 2 kt amb direcció variable
Visibilitat 10 km o més
sense núvols per sota de 1500 mi sense presència de cumulonimbus.
Probabilitat 30%
l' 20 a les 03 UTC al 20 a les 07 UTC
Visibilitat: 2500 m
boirina
Evolucionant progressivament
l' 20 a les 07 UTC al 20 a les 09 UTC
Núvols disperses a una alçada de 4000 ft

TAF: LTAC 192240Z 2000/2024 VRB02KT CAVOK PROB30 2003/2007 2500 BR BECMG 2007/2009 SCT040

Observacions i pronòstics meteorològics de més de 4000 aeroports (METAR i TAF).

Les estacions disponibles són els punts grocs i vermells al mapa.

Posi el ratolí al punt desitjat per veure el nom de l'estació.

Feu clic per veure les observacions i els pronòstics meteorològics.

Per canviar el mapa: feu clic els botons verds amb una creu de color negre per apropar; al botó verd amb un guió per allunyar la imatge; o en les fletxes verdes per a mapes adjacents.


METAR-TAF: